sensor_id;sensor_type;location;lat;lon;timestamp;temperature;humidity
15343;DHT22;7771;48.478;8.936;2023-04-28T00:00:18;13.00;99.90
15343;DHT22;7771;48.478;8.936;2023-04-28T00:02:45;13.00;99.90
15343;DHT22;7771;48.478;8.936;2023-04-28T00:05:11;13.00;99.90
15343;DHT22;7771;48.478;8.936;2023-04-28T00:10:08;13.00;99.90
15343;DHT22;7771;48.478;8.936;2023-04-28T00:12:35;12.90;99.90
15343;DHT22;7771;48.478;8.936;2023-04-28T00:15:02;12.90;99.90
15343;DHT22;7771;48.478;8.936;2023-04-28T00:17:29;12.80;99.90
15343;DHT22;7771;48.478;8.936;2023-04-28T00:19:55;12.80;99.90
15343;DHT22;7771;48.478;8.936;2023-04-28T00:24:50;12.70;99.90
15343;DHT22;7771;48.478;8.936;2023-04-28T00:27:18;12.70;99.90
15343;DHT22;7771;48.478;8.936;2023-04-28T00:29:45;12.70;99.90
15343;DHT22;7771;48.478;8.936;2023-04-28T00:34:41;12.60;99.90
15343;DHT22;7771;48.478;8.936;2023-04-28T00:37:08;12.60;99.90
15343;DHT22;7771;48.478;8.936;2023-04-28T00:39:34;12.50;99.90
15343;DHT22;7771;48.478;8.936;2023-04-28T00:42:02;12.60;99.90
15343;DHT22;7771;48.478;8.936;2023-04-28T00:46:58;12.50;99.90
15343;DHT22;7771;48.478;8.936;2023-04-28T00:49:25;12.50;99.90
15343;DHT22;7771;48.478;8.936;2023-04-28T00:51:51;12.50;99.90
15343;DHT22;7771;48.478;8.936;2023-04-28T00:54:18;12.50;99.90
15343;DHT22;7771;48.478;8.936;2023-04-28T00:56:45;12.50;99.90
15343;DHT22;7771;48.478;8.936;2023-04-28T00:59:12;12.50;99.90
15343;DHT22;7771;48.478;8.936;2023-04-28T01:01:41;12.50;99.90
15343;DHT22;7771;48.478;8.936;2023-04-28T01:04:07;12.50;99.90
15343;DHT22;7771;48.478;8.936;2023-04-28T01:06:34;12.50;99.90
15343;DHT22;7771;48.478;8.936;2023-04-28T01:09:01;12.50;99.90
15343;DHT22;7771;48.478;8.936;2023-04-28T01:11:28;12.50;99.90
15343;DHT22;7771;48.478;8.936;2023-04-28T01:13:56;12.50;99.90
15343;DHT22;7771;48.478;8.936;2023-04-28T01:16:23;12.50;99.90
15343;DHT22;7771;48.478;8.936;2023-04-28T01:18:51;12.50;99.90
15343;DHT22;7771;48.478;8.936;2023-04-28T01:21:25;12.60;99.90
15343;DHT22;7771;48.478;8.936;2023-04-28T01:23:52;12.50;99.90
15343;DHT22;7771;48.478;8.936;2023-04-28T01:26:18;12.50;99.90
15343;DHT22;7771;48.478;8.936;2023-04-28T01:31:13;12.50;99.90
15343;DHT22;7771;48.478;8.936;2023-04-28T01:33:40;12.50;99.90
15343;DHT22;7771;48.478;8.936;2023-04-28T01:36:07;12.50;99.90
15343;DHT22;7771;48.478;8.936;2023-04-28T01:38:34;12.50;99.90
15343;DHT22;7771;48.478;8.936;2023-04-28T01:41:01;12.40;99.90
15343;DHT22;7771;48.478;8.936;2023-04-28T01:43:28;12.50;99.90
15343;DHT22;7771;48.478;8.936;2023-04-28T01:45:55;12.50;99.90
15343;DHT22;7771;48.478;8.936;2023-04-28T01:48:23;12.50;99.90
15343;DHT22;7771;48.478;8.936;2023-04-28T01:50:49;12.50;99.90
15343;DHT22;7771;48.478;8.936;2023-04-28T01:53:17;12.50;99.90
15343;DHT22;7771;48.478;8.936;2023-04-28T01:55:43;12.40;99.90
15343;DHT22;7771;48.478;8.936;2023-04-28T01:58:10;12.40;99.90
15343;DHT22;7771;48.478;8.936;2023-04-28T02:00:37;12.40;99.90
15343;DHT22;7771;48.478;8.936;2023-04-28T02:03:04;12.40;99.90
15343;DHT22;7771;48.478;8.936;2023-04-28T02:07:59;12.40;99.90
15343;DHT22;7771;48.478;8.936;2023-04-28T02:10:27;12.40;99.90
15343;DHT22;7771;48.478;8.936;2023-04-28T02:12:55;12.40;99.90
15343;DHT22;7771;48.478;8.936;2023-04-28T02:15:22;12.50;99.90
15343;DHT22;7771;48.478;8.936;2023-04-28T02:17:50;12.50;99.90
15343;DHT22;7771;48.478;8.936;2023-04-28T02:20:17;12.40;99.90
15343;DHT22;7771;48.478;8.936;2023-04-28T02:22:44;12.50;99.90
15343;DHT22;7771;48.478;8.936;2023-04-28T02:25:12;12.50;99.90
15343;DHT22;7771;48.478;8.936;2023-04-28T02:30:07;12.50;99.90
15343;DHT22;7771;48.478;8.936;2023-04-28T02:32:34;12.50;99.90
15343;DHT22;7771;48.478;8.936;2023-04-28T02:35:01;12.60;99.90
15343;DHT22;7771;48.478;8.936;2023-04-28T02:37:29;12.50;99.90
15343;DHT22;7771;48.478;8.936;2023-04-28T02:39:57;12.50;99.90
15343;DHT22;7771;48.478;8.936;2023-04-28T02:42:23;12.60;99.90
15343;DHT22;7771;48.478;8.936;2023-04-28T02:44:51;12.60;99.90
15343;DHT22;7771;48.478;8.936;2023-04-28T02:47:19;12.50;99.90
15343;DHT22;7771;48.478;8.936;2023-04-28T02:49:47;12.50;99.90
15343;DHT22;7771;48.478;8.936;2023-04-28T02:52:13;12.50;99.90
15343;DHT22;7771;48.478;8.936;2023-04-28T02:54:41;12.60;99.90
15343;DHT22;7771;48.478;8.936;2023-04-28T02:57:08;12.50;99.90
15343;DHT22;7771;48.478;8.936;2023-04-28T02:59:35;12.50;99.90
15343;DHT22;7771;48.478;8.936;2023-04-28T03:02:02;12.40;99.90
15343;DHT22;7771;48.478;8.936;2023-04-28T03:06:58;12.40;99.90
15343;DHT22;7771;48.478;8.936;2023-04-28T03:11:53;12.40;99.90
15343;DHT22;7771;48.478;8.936;2023-04-28T03:14:20;12.40;99.90
15343;DHT22;7771;48.478;8.936;2023-04-28T03:16:47;12.40;99.90
15343;DHT22;7771;48.478;8.936;2023-04-28T03:19:14;12.40;99.90
15343;DHT22;7771;48.478;8.936;2023-04-28T03:21:41;12.50;99.90
15343;DHT22;7771;48.478;8.936;2023-04-28T03:24:08;12.50;99.90
15343;DHT22;7771;48.478;8.936;2023-04-28T03:26:35;12.40;99.90
15343;DHT22;7771;48.478;8.936;2023-04-28T03:29:01;12.40;99.90
15343;DHT22;7771;48.478;8.936;2023-04-28T03:31:28;12.50;99.90
15343;DHT22;7771;48.478;8.936;2023-04-28T03:33:55;12.50;99.90
15343;DHT22;7771;48.478;8.936;2023-04-28T03:38:51;12.50;99.90
15343;DHT22;7771;48.478;8.936;2023-04-28T03:41:17;12.50;99.90
15343;DHT22;7771;48.478;8.936;2023-04-28T03:43:46;12.60;99.90
15343;DHT22;7771;48.478;8.936;2023-04-28T03:46:13;12.60;99.90
15343;DHT22;7771;48.478;8.936;2023-04-28T03:51:08;12.70;99.90
15343;DHT22;7771;48.478;8.936;2023-04-28T03:56:02;12.70;99.90
15343;DHT22;7771;48.478;8.936;2023-04-28T03:58:30;12.70;99.90
15343;DHT22;7771;48.478;8.936;2023-04-28T04:03:26;12.80;99.90
15343;DHT22;7771;48.478;8.936;2023-04-28T04:05:52;12.90;99.90
15343;DHT22;7771;48.478;8.936;2023-04-28T04:08:19;12.90;99.90
15343;DHT22;7771;48.478;8.936;2023-04-28T04:10:46;12.90;99.90
15343;DHT22;7771;48.478;8.936;2023-04-28T04:13:13;13.00;99.90
15343;DHT22;7771;48.478;8.936;2023-04-28T04:15:40;12.90;99.90
15343;DHT22;7771;48.478;8.936;2023-04-28T04:18:07;13.00;99.90
15343;DHT22;7771;48.478;8.936;2023-04-28T04:20:34;13.00;99.90
15343;DHT22;7771;48.478;8.936;2023-04-28T04:25:29;13.10;99.90
15343;DHT22;7771;48.478;8.936;2023-04-28T04:30:24;13.10;99.90
15343;DHT22;7771;48.478;8.936;2023-04-28T04:32:51;13.10;99.90
15343;DHT22;7771;48.478;8.936;2023-04-28T04:35:19;13.20;99.90
15343;DHT22;7771;48.478;8.936;2023-04-28T04:37:47;13.30;99.90
15343;DHT22;7771;48.478;8.936;2023-04-28T04:40:13;13.30;99.90
15343;DHT22;7771;48.478;8.936;2023-04-28T04:42:40;13.30;99.90
15343;DHT22;7771;48.478;8.936;2023-04-28T04:45:08;13.40;99.90
15343;DHT22;7771;48.478;8.936;2023-04-28T04:47:34;13.40;99.90
15343;DHT22;7771;48.478;8.936;2023-04-28T04:50:02;13.40;99.90
15343;DHT22;7771;48.478;8.936;2023-04-28T04:52:28;13.40;99.90
15343;DHT22;7771;48.478;8.936;2023-04-28T04:57:24;13.40;99.90
15343;DHT22;7771;48.478;8.936;2023-04-28T04:59:50;13.30;99.90
15343;DHT22;7771;48.478;8.936;2023-04-28T05:02:18;13.40;99.90
15343;DHT22;7771;48.478;8.936;2023-04-28T05:04:44;13.30;99.90
15343;DHT22;7771;48.478;8.936;2023-04-28T05:09:40;13.30;99.90
15343;DHT22;7771;48.478;8.936;2023-04-28T05:12:07;13.30;99.90
15343;DHT22;7771;48.478;8.936;2023-04-28T05:14:33;13.20;99.90
15343;DHT22;7771;48.478;8.936;2023-04-28T05:19:29;13.20;99.90
15343;DHT22;7771;48.478;8.936;2023-04-28T05:21:57;13.20;99.90
15343;DHT22;7771;48.478;8.936;2023-04-28T05:24:23;13.30;99.90
15343;DHT22;7771;48.478;8.936;2023-04-28T05:29:20;13.30;99.90
15343;DHT22;7771;48.478;8.936;2023-04-28T05:31:47;13.30;99.90
15343;DHT22;7771;48.478;8.936;2023-04-28T05:34:14;13.30;99.90
15343;DHT22;7771;48.478;8.936;2023-04-28T05:36:43;13.30;99.90
15343;DHT22;7771;48.478;8.936;2023-04-28T05:41:36;13.30;99.90
15343;DHT22;7771;48.478;8.936;2023-04-28T05:44:04;13.30;99.90
15343;DHT22;7771;48.478;8.936;2023-04-28T05:46:30;13.30;99.90
15343;DHT22;7771;48.478;8.936;2023-04-28T05:48:59;13.40;99.90
15343;DHT22;7771;48.478;8.936;2023-04-28T05:51:27;13.40;99.90
15343;DHT22;7771;48.478;8.936;2023-04-28T05:56:22;13.40;99.90
15343;DHT22;7771;48.478;8.936;2023-04-28T05:58:50;13.50;99.90
15343;DHT22;7771;48.478;8.936;2023-04-28T06:01:17;13.50;99.90
15343;DHT22;7771;48.478;8.936;2023-04-28T06:03:43;13.40;99.90
15343;DHT22;7771;48.478;8.936;2023-04-28T06:06:10;13.50;99.90
15343;DHT22;7771;48.478;8.936;2023-04-28T06:08:37;13.50;99.90
15343;DHT22;7771;48.478;8.936;2023-04-28T06:11:03;13.50;99.90
15343;DHT22;7771;48.478;8.936;2023-04-28T06:15:58;13.50;99.90
15343;DHT22;7771;48.478;8.936;2023-04-28T06:18:25;13.50;99.90
15343;DHT22;7771;48.478;8.936;2023-04-28T06:23:21;13.60;99.90
15343;DHT22;7771;48.478;8.936;2023-04-28T06:28:17;13.70;99.90
15343;DHT22;7771;48.478;8.936;2023-04-28T06:33:13;13.70;99.90
15343;DHT22;7771;48.478;8.936;2023-04-28T06:35:40;13.70;99.90
15343;DHT22;7771;48.478;8.936;2023-04-28T06:38:08;13.70;99.90
15343;DHT22;7771;48.478;8.936;2023-04-28T06:40:34;13.70;99.90
15343;DHT22;7771;48.478;8.936;2023-04-28T06:43:02;13.80;99.90
15343;DHT22;7771;48.478;8.936;2023-04-28T06:45:28;13.80;99.90
15343;DHT22;7771;48.478;8.936;2023-04-28T06:47:56;13.90;99.90
15343;DHT22;7771;48.478;8.936;2023-04-28T06:50:23;13.90;99.90
15343;DHT22;7771;48.478;8.936;2023-04-28T06:55:17;14.10;99.90
15343;DHT22;7771;48.478;8.936;2023-04-28T06:57:45;14.10;99.90
15343;DHT22;7771;48.478;8.936;2023-04-28T07:00:12;14.10;99.90
15343;DHT22;7771;48.478;8.936;2023-04-28T07:02:38;14.00;99.90
15343;DHT22;7771;48.478;8.936;2023-04-28T07:05:07;14.10;99.90
15343;DHT22;7771;48.478;8.936;2023-04-28T07:07:33;14.10;99.90
15343;DHT22;7771;48.478;8.936;2023-04-28T07:10:01;14.20;99.90
15343;DHT22;7771;48.478;8.936;2023-04-28T07:12:28;14.20;99.90
15343;DHT22;7771;48.478;8.936;2023-04-28T07:14:55;14.30;99.90
15343;DHT22;7771;48.478;8.936;2023-04-28T07:17:22;14.30;99.90
15343;DHT22;7771;48.478;8.936;2023-04-28T07:19:49;14.30;99.90
15343;DHT22;7771;48.478;8.936;2023-04-28T07:22:16;14.30;99.90
15343;DHT22;7771;48.478;8.936;2023-04-28T07:24:43;14.30;99.90
15343;DHT22;7771;48.478;8.936;2023-04-28T07:27:10;14.40;99.90
15343;DHT22;7771;48.478;8.936;2023-04-28T07:32:06;14.50;99.90
15343;DHT22;7771;48.478;8.936;2023-04-28T07:34:35;14.60;99.90
15343;DHT22;7771;48.478;8.936;2023-04-28T07:39:30;14.70;99.90
15343;DHT22;7771;48.478;8.936;2023-04-28T07:41:56;14.70;99.90
15343;DHT22;7771;48.478;8.936;2023-04-28T07:44:24;14.80;99.90
15343;DHT22;7771;48.478;8.936;2023-04-28T07:46:51;14.80;99.90
15343;DHT22;7771;48.478;8.936;2023-04-28T07:49:17;14.90;99.90
15343;DHT22;7771;48.478;8.936;2023-04-28T07:51:44;14.90;99.90
15343;DHT22;7771;48.478;8.936;2023-04-28T07:54:11;15.00;99.90
15343;DHT22;7771;48.478;8.936;2023-04-28T07:56:39;15.00;99.90
15343;DHT22;7771;48.478;8.936;2023-04-28T07:59:05;15.10;99.90
15343;DHT22;7771;48.478;8.936;2023-04-28T08:01:33;15.10;99.90
15343;DHT22;7771;48.478;8.936;2023-04-28T08:06:28;15.30;99.90
15343;DHT22;7771;48.478;8.936;2023-04-28T08:08:55;15.30;99.90
15343;DHT22;7771;48.478;8.936;2023-04-28T08:11:22;15.30;99.90
15343;DHT22;7771;48.478;8.936;2023-04-28T08:13:49;15.40;99.90
15343;DHT22;7771;48.478;8.936;2023-04-28T08:16:17;15.40;99.90
15343;DHT22;7771;48.478;8.936;2023-04-28T08:18:44;15.40;99.90
15343;DHT22;7771;48.478;8.936;2023-04-28T08:21:11;15.50;99.90
15343;DHT22;7771;48.478;8.936;2023-04-28T08:23:38;15.50;99.90
15343;DHT22;7771;48.478;8.936;2023-04-28T08:26:04;15.50;99.90
15343;DHT22;7771;48.478;8.936;2023-04-28T08:28:31;15.60;99.90
15343;DHT22;7771;48.478;8.936;2023-04-28T08:33:26;15.70;99.90
15343;DHT22;7771;48.478;8.936;2023-04-28T08:35:54;15.70;99.90
15343;DHT22;7771;48.478;8.936;2023-04-28T08:38:21;15.80;99.90
15343;DHT22;7771;48.478;8.936;2023-04-28T08:43:17;15.90;99.90
15343;DHT22;7771;48.478;8.936;2023-04-28T08:45:43;15.90;99.90
15343;DHT22;7771;48.478;8.936;2023-04-28T08:48:17;16.00;99.90
15343;DHT22;7771;48.478;8.936;2023-04-28T08:50:45;16.00;99.90
15343;DHT22;7771;48.478;8.936;2023-04-28T08:53:11;16.10;99.90
15343;DHT22;7771;48.478;8.936;2023-04-28T08:55:38;16.10;99.90
15343;DHT22;7771;48.478;8.936;2023-04-28T08:58:05;16.20;99.90
15343;DHT22;7771;48.478;8.936;2023-04-28T09:00:35;16.20;99.90
15343;DHT22;7771;48.478;8.936;2023-04-28T09:03:01;16.30;99.90
15343;DHT22;7771;48.478;8.936;2023-04-28T09:05:28;16.40;99.90
15343;DHT22;7771;48.478;8.936;2023-04-28T09:07:56;16.40;99.90
15343;DHT22;7771;48.478;8.936;2023-04-28T09:10:23;16.40;99.90
15343;DHT22;7771;48.478;8.936;2023-04-28T09:12:51;16.40;99.90
15343;DHT22;7771;48.478;8.936;2023-04-28T09:15:26;16.40;99.90
15343;DHT22;7771;48.478;8.936;2023-04-28T09:17:53;16.30;99.90
15343;DHT22;7771;48.478;8.936;2023-04-28T09:20:23;16.20;99.90
15343;DHT22;7771;48.478;8.936;2023-04-28T09:22:49;16.30;99.90
15343;DHT22;7771;48.478;8.936;2023-04-28T09:25:17;16.30;99.90
15343;DHT22;7771;48.478;8.936;2023-04-28T09:27:43;16.30;99.90
15343;DHT22;7771;48.478;8.936;2023-04-28T09:30:10;16.40;99.90
15343;DHT22;7771;48.478;8.936;2023-04-28T09:32:38;16.40;99.90
15343;DHT22;7771;48.478;8.936;2023-04-28T09:35:06;16.50;99.90
15343;DHT22;7771;48.478;8.936;2023-04-28T09:37:33;16.60;99.90
15343;DHT22;7771;48.478;8.936;2023-04-28T09:40:06;16.80;99.90
15343;DHT22;7771;48.478;8.936;2023-04-28T09:45:01;17.00;99.90
15343;DHT22;7771;48.478;8.936;2023-04-28T09:47:27;17.20;99.90
15343;DHT22;7771;48.478;8.936;2023-04-28T09:49:54;17.50;99.90
15343;DHT22;7771;48.478;8.936;2023-04-28T09:52:22;17.70;99.90
15343;DHT22;7771;48.478;8.936;2023-04-28T09:57:16;18.00;99.90
15343;DHT22;7771;48.478;8.936;2023-04-28T10:07:06;18.40;99.90
15343;DHT22;7771;48.478;8.936;2023-04-28T10:12:01;18.50;99.90
15343;DHT22;7771;48.478;8.936;2023-04-28T10:14:29;18.70;99.90
15343;DHT22;7771;48.478;8.936;2023-04-28T10:19:24;19.00;99.90
15343;DHT22;7771;48.478;8.936;2023-04-28T10:21:55;19.20;99.90
15343;DHT22;7771;48.478;8.936;2023-04-28T10:24:21;19.30;99.90
15343;DHT22;7771;48.478;8.936;2023-04-28T10:27:08;19.50;99.90
15343;DHT22;7771;48.478;8.936;2023-04-28T10:29:35;19.70;99.90
15343;DHT22;7771;48.478;8.936;2023-04-28T10:32:13;19.80;99.90
15343;DHT22;7771;48.478;8.936;2023-04-28T10:34:39;19.80;99.90
15343;DHT22;7771;48.478;8.936;2023-04-28T10:37:07;19.70;99.90
15343;DHT22;7771;48.478;8.936;2023-04-28T10:39:35;19.70;99.90
15343;DHT22;7771;48.478;8.936;2023-04-28T10:42:03;19.70;99.90
15343;DHT22;7771;48.478;8.936;2023-04-28T10:44:45;19.80;99.90
15343;DHT22;7771;48.478;8.936;2023-04-28T10:47:12;19.90;99.90
15343;DHT22;7771;48.478;8.936;2023-04-28T10:57:40;20.20;99.90
15343;DHT22;7771;48.478;8.936;2023-04-28T11:00:27;20.30;99.90
15343;DHT22;7771;48.478;8.936;2023-04-28T11:02:54;20.40;99.90
15343;DHT22;7771;48.478;8.936;2023-04-28T11:05:21;20.50;99.90
15343;DHT22;7771;48.478;8.936;2023-04-28T11:10:32;20.50;99.90
15343;DHT22;7771;48.478;8.936;2023-04-28T11:13:33;20.50;99.90
15343;DHT22;7771;48.478;8.936;2023-04-28T11:15:47;20.40;99.90
15343;DHT22;7771;48.478;8.936;2023-04-28T11:18:10;20.50;99.90
15343;DHT22;7771;48.478;8.936;2023-04-28T11:20:37;20.40;99.90
15343;DHT22;7771;48.478;8.936;2023-04-28T11:23:03;20.50;99.90
15343;DHT22;7771;48.478;8.936;2023-04-28T11:25:52;20.50;99.90
15343;DHT22;7771;48.478;8.936;2023-04-28T11:28:02;20.50;99.90
15343;DHT22;7771;48.478;8.936;2023-04-28T11:30:24;20.60;99.90
15343;DHT22;7771;48.478;8.936;2023-04-28T11:32:51;20.70;99.90
15343;DHT22;7771;48.478;8.936;2023-04-28T11:35:19;20.80;99.90
15343;DHT22;7771;48.478;8.936;2023-04-28T11:37:46;20.90;99.90
15343;DHT22;7771;48.478;8.936;2023-04-28T11:40:13;21.00;99.90
15343;DHT22;7771;48.478;8.936;2023-04-28T11:42:46;21.00;99.90
15343;DHT22;7771;48.478;8.936;2023-04-28T11:45:12;21.00;99.90
15343;DHT22;7771;48.478;8.936;2023-04-28T11:47:38;21.00;99.90
15343;DHT22;7771;48.478;8.936;2023-04-28T11:50:06;21.00;99.90
15343;DHT22;7771;48.478;8.936;2023-04-28T11:52:34;20.90;99.90
15343;DHT22;7771;48.478;8.936;2023-04-28T11:55:01;20.90;99.90
15343;DHT22;7771;48.478;8.936;2023-04-28T11:57:28;20.90;99.90
15343;DHT22;7771;48.478;8.936;2023-04-28T12:02:27;20.90;99.90
15343;DHT22;7771;48.478;8.936;2023-04-28T12:04:54;20.90;99.90
15343;DHT22;7771;48.478;8.936;2023-04-28T12:12:29;21.10;99.90
15343;DHT22;7771;48.478;8.936;2023-04-28T12:14:59;21.30;99.90
15343;DHT22;7771;48.478;8.936;2023-04-28T12:17:28;21.30;99.90
15343;DHT22;7771;48.478;8.936;2023-04-28T12:19:55;21.40;99.90
15343;DHT22;7771;48.478;8.936;2023-04-28T12:22:22;21.40;99.90
15343;DHT22;7771;48.478;8.936;2023-04-28T12:27:27;21.40;99.90
15343;DHT22;7771;48.478;8.936;2023-04-28T12:29:55;21.30;99.90
15343;DHT22;7771;48.478;8.936;2023-04-28T12:32:37;21.30;99.90
15343;DHT22;7771;48.478;8.936;2023-04-28T12:35:04;21.30;99.90
15343;DHT22;7771;48.478;8.936;2023-04-28T12:37:32;21.30;99.90
15343;DHT22;7771;48.478;8.936;2023-04-28T12:39:58;21.30;99.90
15343;DHT22;7771;48.478;8.936;2023-04-28T12:42:25;21.10;99.90
15343;DHT22;7771;48.478;8.936;2023-04-28T12:44:52;21.10;99.90
15343;DHT22;7771;48.478;8.936;2023-04-28T12:49:46;21.00;99.90
15343;DHT22;7771;48.478;8.936;2023-04-28T12:52:13;21.10;99.90
15343;DHT22;7771;48.478;8.936;2023-04-28T12:57:08;21.10;99.90
15343;DHT22;7771;48.478;8.936;2023-04-28T12:59:35;21.20;99.90
15343;DHT22;7771;48.478;8.936;2023-04-28T13:02:02;21.10;99.90
15343;DHT22;7771;48.478;8.936;2023-04-28T13:04:29;21.10;99.90
15343;DHT22;7771;48.478;8.936;2023-04-28T13:06:57;21.10;99.90
15343;DHT22;7771;48.478;8.936;2023-04-28T13:09:23;21.20;99.90
15343;DHT22;7771;48.478;8.936;2023-04-28T13:11:49;21.30;99.90
15343;DHT22;7771;48.478;8.936;2023-04-28T13:14:18;21.40;99.90
15343;DHT22;7771;48.478;8.936;2023-04-28T13:19:13;21.40;99.90
15343;DHT22;7771;48.478;8.936;2023-04-28T13:24:09;21.50;99.90
15343;DHT22;7771;48.478;8.936;2023-04-28T13:26:35;21.50;99.90
15343;DHT22;7771;48.478;8.936;2023-04-28T13:29:02;21.40;99.90
15343;DHT22;7771;48.478;8.936;2023-04-28T13:31:30;21.40;99.90
15343;DHT22;7771;48.478;8.936;2023-04-28T13:33:57;21.40;99.90
15343;DHT22;7771;48.478;8.936;2023-04-28T13:36:24;21.30;99.90
15343;DHT22;7771;48.478;8.936;2023-04-28T13:38:52;21.30;99.90
15343;DHT22;7771;48.478;8.936;2023-04-28T13:41:18;21.10;99.90
15343;DHT22;7771;48.478;8.936;2023-04-28T13:43:45;21.00;99.90
15343;DHT22;7771;48.478;8.936;2023-04-28T13:46:13;21.00;99.90
15343;DHT22;7771;48.478;8.936;2023-04-28T13:48:41;20.90;99.90
15343;DHT22;7771;48.478;8.936;2023-04-28T13:51:08;20.80;99.90
15343;DHT22;7771;48.478;8.936;2023-04-28T13:53:35;20.70;99.90
15343;DHT22;7771;48.478;8.936;2023-04-28T13:56:05;20.60;99.90
15343;DHT22;7771;48.478;8.936;2023-04-28T13:58:31;20.50;99.90
15343;DHT22;7771;48.478;8.936;2023-04-28T14:00:58;20.40;99.90
15343;DHT22;7771;48.478;8.936;2023-04-28T14:05:53;20.10;99.90
15343;DHT22;7771;48.478;8.936;2023-04-28T14:10:49;19.90;99.90
15343;DHT22;7771;48.478;8.936;2023-04-28T14:13:16;19.80;99.90
15343;DHT22;7771;48.478;8.936;2023-04-28T14:15:42;19.70;99.90
15343;DHT22;7771;48.478;8.936;2023-04-28T14:18:10;19.60;99.90
15343;DHT22;7771;48.478;8.936;2023-04-28T14:20:38;19.50;99.90
15343;DHT22;7771;48.478;8.936;2023-04-28T14:23:04;19.50;99.90
15343;DHT22;7771;48.478;8.936;2023-04-28T14:25:32;19.40;99.90
15343;DHT22;7771;48.478;8.936;2023-04-28T14:27:58;19.40;99.90
15343;DHT22;7771;48.478;8.936;2023-04-28T14:30:26;19.20;99.90
15343;DHT22;7771;48.478;8.936;2023-04-28T14:32:52;19.20;99.90
15343;DHT22;7771;48.478;8.936;2023-04-28T14:35:19;19.20;99.90
15343;DHT22;7771;48.478;8.936;2023-04-28T14:37:46;19.00;99.90
15343;DHT22;7771;48.478;8.936;2023-04-28T14:40:13;18.90;99.90
15343;DHT22;7771;48.478;8.936;2023-04-28T14:42:39;18.80;99.90
15343;DHT22;7771;48.478;8.936;2023-04-28T14:45:08;18.70;99.90
15343;DHT22;7771;48.478;8.936;2023-04-28T14:47:35;18.50;99.90
15343;DHT22;7771;48.478;8.936;2023-04-28T14:50:03;18.40;99.90
15343;DHT22;7771;48.478;8.936;2023-04-28T14:52:31;18.40;99.90
15343;DHT22;7771;48.478;8.936;2023-04-28T14:54:59;18.40;99.90
15343;DHT22;7771;48.478;8.936;2023-04-28T14:57:26;18.40;99.90
15343;DHT22;7771;48.478;8.936;2023-04-28T14:59:52;18.40;99.90
15343;DHT22;7771;48.478;8.936;2023-04-28T15:02:19;18.40;99.90
15343;DHT22;7771;48.478;8.936;2023-04-28T15:04:47;18.40;99.90
15343;DHT22;7771;48.478;8.936;2023-04-28T15:07:15;18.40;99.90
15343;DHT22;7771;48.478;8.936;2023-04-28T15:09:42;18.40;99.90
15343;DHT22;7771;48.478;8.936;2023-04-28T15:12:09;18.40;99.90
15343;DHT22;7771;48.478;8.936;2023-04-28T15:14:36;18.30;99.90
15343;DHT22;7771;48.478;8.936;2023-04-28T15:17:04;18.30;99.90
15343;DHT22;7771;48.478;8.936;2023-04-28T15:19:30;18.40;99.90
15343;DHT22;7771;48.478;8.936;2023-04-28T15:21:58;18.40;99.90
15343;DHT22;7771;48.478;8.936;2023-04-28T15:24:25;18.50;99.90
15343;DHT22;7771;48.478;8.936;2023-04-28T15:26:51;18.50;99.90
15343;DHT22;7771;48.478;8.936;2023-04-28T15:29:19;18.50;99.90
15343;DHT22;7771;48.478;8.936;2023-04-28T15:31:46;18.50;99.90
15343;DHT22;7771;48.478;8.936;2023-04-28T15:34:13;18.50;99.90
15343;DHT22;7771;48.478;8.936;2023-04-28T15:36:41;18.40;99.90
15343;DHT22;7771;48.478;8.936;2023-04-28T15:39:08;18.40;99.90
15343;DHT22;7771;48.478;8.936;2023-04-28T15:44:03;18.40;99.90
15343;DHT22;7771;48.478;8.936;2023-04-28T15:46:31;18.30;99.90
15343;DHT22;7771;48.478;8.936;2023-04-28T15:48:59;18.30;99.90
15343;DHT22;7771;48.478;8.936;2023-04-28T15:51:27;18.30;99.90
15343;DHT22;7771;48.478;8.936;2023-04-28T15:53:54;18.30;99.90
15343;DHT22;7771;48.478;8.936;2023-04-28T15:58:49;18.20;99.90
15343;DHT22;7771;48.478;8.936;2023-04-28T16:01:17;18.10;99.90
15343;DHT22;7771;48.478;8.936;2023-04-28T16:03:44;18.00;99.90
15343;DHT22;7771;48.478;8.936;2023-04-28T16:08:39;18.00;99.90
15343;DHT22;7771;48.478;8.936;2023-04-28T16:11:06;18.00;99.90
15343;DHT22;7771;48.478;8.936;2023-04-28T16:16:01;18.10;99.90
15343;DHT22;7771;48.478;8.936;2023-04-28T16:20:56;18.20;99.90
15343;DHT22;7771;48.478;8.936;2023-04-28T16:23:24;18.30;99.90
15343;DHT22;7771;48.478;8.936;2023-04-28T16:25:51;18.40;99.90
15343;DHT22;7771;48.478;8.936;2023-04-28T16:28:18;18.40;99.90
15343;DHT22;7771;48.478;8.936;2023-04-28T16:30:45;18.40;99.90
15343;DHT22;7771;48.478;8.936;2023-04-28T16:33:11;18.50;99.90
15343;DHT22;7771;48.478;8.936;2023-04-28T16:35:39;18.50;99.90
15343;DHT22;7771;48.478;8.936;2023-04-28T16:38:07;18.60;99.90
15343;DHT22;7771;48.478;8.936;2023-04-28T16:43:01;18.50;99.90
15343;DHT22;7771;48.478;8.936;2023-04-28T16:45:30;18.50;99.90
15343;DHT22;7771;48.478;8.936;2023-04-28T16:50:25;18.40;99.90
15343;DHT22;7771;48.478;8.936;2023-04-28T16:52:52;18.40;99.90
15343;DHT22;7771;48.478;8.936;2023-04-28T16:55:19;18.40;99.90
15343;DHT22;7771;48.478;8.936;2023-04-28T16:57:46;18.30;99.90
15343;DHT22;7771;48.478;8.936;2023-04-28T17:00:14;18.20;99.90
15343;DHT22;7771;48.478;8.936;2023-04-28T17:05:10;18.10;99.90
15343;DHT22;7771;48.478;8.936;2023-04-28T17:07:36;18.00;99.90
15343;DHT22;7771;48.478;8.936;2023-04-28T17:10:03;18.00;99.90
15343;DHT22;7771;48.478;8.936;2023-04-28T17:12:30;18.00;99.90
15343;DHT22;7771;48.478;8.936;2023-04-28T17:14:57;17.90;99.90
15343;DHT22;7771;48.478;8.936;2023-04-28T17:19:53;17.90;99.90
15343;DHT22;7771;48.478;8.936;2023-04-28T17:22:19;18.00;99.90
15343;DHT22;7771;48.478;8.936;2023-04-28T17:24:47;18.00;99.90
15343;DHT22;7771;48.478;8.936;2023-04-28T17:27:13;18.00;99.90
15343;DHT22;7771;48.478;8.936;2023-04-28T17:29:41;18.00;99.90
15343;DHT22;7771;48.478;8.936;2023-04-28T17:32:07;17.90;99.90
15343;DHT22;7771;48.478;8.936;2023-04-28T17:34:35;18.00;99.90
15343;DHT22;7771;48.478;8.936;2023-04-28T17:37:03;17.90;99.90
15343;DHT22;7771;48.478;8.936;2023-04-28T17:39:30;17.90;99.90
15343;DHT22;7771;48.478;8.936;2023-04-28T17:41:57;17.90;99.90
15343;DHT22;7771;48.478;8.936;2023-04-28T17:44:24;17.90;99.90
15343;DHT22;7771;48.478;8.936;2023-04-28T17:46:50;17.80;99.90
15343;DHT22;7771;48.478;8.936;2023-04-28T17:49:18;17.80;99.90
15343;DHT22;7771;48.478;8.936;2023-04-28T17:51:46;17.80;99.90
15343;DHT22;7771;48.478;8.936;2023-04-28T17:59:08;17.60;99.90
15343;DHT22;7771;48.478;8.936;2023-04-28T18:01:36;17.60;99.90
15343;DHT22;7771;48.478;8.936;2023-04-28T18:04:03;17.60;99.90
15343;DHT22;7771;48.478;8.936;2023-04-28T18:06:29;17.50;99.90
15343;DHT22;7771;48.478;8.936;2023-04-28T18:08:56;17.50;99.90
15343;DHT22;7771;48.478;8.936;2023-04-28T18:11:23;17.50;99.90
15343;DHT22;7771;48.478;8.936;2023-04-28T18:13:49;17.50;99.90
15343;DHT22;7771;48.478;8.936;2023-04-28T18:16:17;17.50;99.90
15343;DHT22;7771;48.478;8.936;2023-04-28T18:18:44;17.40;99.90
15343;DHT22;7771;48.478;8.936;2023-04-28T18:21:11;17.40;99.90